createdAt,value
2018-08-24T00:00:20.568Z,18.23
2018-08-24T00:02:47.539Z,17.80
2018-08-24T00:05:14.636Z,17.33
2018-08-24T00:07:41.736Z,17.70
2018-08-24T00:10:09.096Z,18.70
2018-08-24T00:12:36.152Z,18.70
2018-08-24T00:15:03.175Z,18.80
2018-08-24T00:17:30.875Z,19.80
2018-08-24T00:19:58.260Z,19.10
2018-08-24T00:22:25.239Z,19.20
2018-08-24T00:24:52.707Z,19.50
2018-08-24T00:27:19.831Z,20.83
2018-08-24T00:29:46.799Z,20.43
2018-08-24T00:32:13.769Z,18.90
2018-08-24T00:34:40.792Z,20.10
2018-08-24T00:37:07.780Z,20.43
2018-08-24T00:39:34.792Z,20.60
2018-08-24T00:42:02.070Z,18.80
2018-08-24T00:44:29.129Z,19.80
2018-08-24T00:46:56.191Z,21.50
2018-08-24T00:49:23.636Z,19.97
2018-08-24T00:51:50.677Z,19.00
2018-08-24T00:54:17.676Z,20.40
2018-08-24T00:56:44.695Z,21.07
2018-08-24T00:59:11.720Z,20.57
2018-08-24T01:01:38.710Z,20.20
2018-08-24T01:04:05.729Z,18.90
2018-08-24T01:06:33.224Z,19.57
2018-08-24T01:09:00.195Z,19.20
2018-08-24T01:11:33.154Z,20.20
2018-08-24T01:14:00.231Z,19.90
2018-08-24T01:16:32.917Z,20.80
2018-08-24T01:18:59.916Z,20.30
2018-08-24T01:21:26.903Z,19.90
2018-08-24T01:23:53.927Z,19.40
2018-08-24T01:26:21.147Z,19.20
2018-08-24T01:28:48.223Z,19.60
2018-08-24T01:31:15.575Z,19.93
2018-08-24T01:33:42.544Z,19.10
2018-08-24T01:36:09.539Z,19.70
2018-08-24T01:38:36.579Z,20.00
2018-08-24T01:41:03.651Z,19.47
2018-08-24T01:43:30.711Z,21.10
2018-08-24T01:46:03.532Z,20.07
2018-08-24T01:48:30.492Z,20.37
2018-08-24T01:50:57.484Z,20.80
2018-08-24T01:53:24.843Z,19.30
2018-08-24T01:55:51.816Z,16.87
2018-08-24T01:58:18.817Z,21.43
2018-08-24T02:00:45.820Z,20.13
2018-08-24T02:03:12.792Z,19.70
2018-08-24T02:05:40.075Z,20.07
2018-08-24T02:08:07.156Z,22.57
2018-08-24T02:10:34.140Z,22.77
2018-08-24T02:13:06.818Z,21.10
2018-08-24T02:15:33.975Z,22.43
2018-08-24T02:18:06.683Z,21.70
2018-08-24T02:20:39.432Z,22.27
2018-08-24T02:23:12.851Z,22.37
2018-08-24T02:25:40.516Z,19.60
2018-08-24T02:28:07.668Z,18.60
2018-08-24T02:30:34.701Z,15.97
2018-08-24T02:33:01.968Z,6.77
2018-08-24T02:35:29.057Z,5.40
2018-08-24T02:37:56.030Z,4.20
2018-08-24T02:40:23.004Z,3.17
2018-08-24T02:42:49.985Z,4.23
2018-08-24T02:45:16.980Z,4.30
2018-08-24T02:47:44.077Z,3.93
2018-08-24T02:50:11.080Z,5.40
2018-08-24T02:52:38.165Z,5.10
2018-08-24T02:55:05.256Z,4.80
2018-08-24T02:57:32.338Z,3.90
2018-08-24T02:59:59.443Z,4.80
2018-08-24T03:02:27.979Z,4.70
2018-08-24T03:04:55.067Z,5.23
2018-08-24T03:07:22.263Z,4.70
2018-08-24T03:09:49.284Z,4.70
2018-08-24T03:12:16.667Z,4.93
2018-08-24T03:14:43.656Z,3.50
2018-08-24T03:17:16.530Z,3.60
2018-08-24T03:19:43.511Z,3.40
2018-08-24T03:22:10.660Z,3.67
2018-08-24T03:24:38.160Z,3.90
2018-08-24T03:27:05.299Z,3.77
2018-08-24T03:29:32.372Z,2.90
2018-08-24T03:31:59.368Z,4.17
2018-08-24T03:34:26.355Z,3.20
2018-08-24T03:36:53.350Z,3.77
2018-08-24T03:39:20.379Z,3.40
2018-08-24T03:41:47.353Z,3.70
2018-08-24T03:44:14.364Z,2.97
2018-08-24T03:46:42.137Z,3.43
2018-08-24T03:49:09.115Z,3.20
2018-08-24T03:51:36.123Z,4.20
2018-08-24T03:54:07.772Z,4.33
2018-08-24T03:56:34.829Z,4.20
2018-08-24T03:59:01.882Z,5.43
2018-08-24T04:01:28.889Z,4.87
2018-08-24T04:03:55.892Z,4.77
2018-08-24T04:06:22.897Z,6.03
2018-08-24T04:08:49.951Z,6.43
2018-08-24T04:11:17.035Z,5.00
2018-08-24T04:13:44.028Z,5.67
2018-08-24T04:16:11.011Z,7.00
2018-08-24T04:18:38.004Z,7.40
2018-08-24T04:21:05.016Z,7.80
2018-08-24T04:23:31.992Z,9.27
2018-08-24T04:25:59.116Z,7.50
2018-08-24T04:28:26.020Z,5.13
2018-08-24T04:30:53.008Z,8.37
2018-08-24T04:33:20.303Z,5.43
2018-08-24T04:35:47.291Z,8.77
2018-08-24T04:38:14.351Z,8.07
2018-08-24T04:40:41.635Z,8.90
2018-08-24T04:43:08.624Z,7.63
2018-08-24T04:45:35.640Z,7.73
2018-08-24T04:48:03.290Z,7.60
2018-08-24T04:50:30.296Z,7.70
2018-08-24T04:52:57.293Z,7.87
2018-08-24T04:55:24.538Z,8.70
2018-08-24T04:57:51.516Z,7.80
2018-08-24T05:00:18.616Z,7.80
2018-08-24T05:02:45.637Z,6.50
2018-08-24T05:05:12.655Z,6.33
2018-08-24T05:07:39.723Z,6.83
2018-08-24T05:10:06.788Z,5.53
2018-08-24T05:12:33.893Z,9.00
2018-08-24T05:15:01.101Z,6.20
2018-08-24T05:17:28.678Z,4.83
2018-08-24T05:19:56.021Z,7.30
2018-08-24T05:22:23.019Z,6.80
2018-08-24T05:24:50.144Z,5.20
2018-08-24T05:27:17.038Z,5.00
2018-08-24T05:29:44.028Z,4.60
2018-08-24T05:32:11.015Z,4.30
2018-08-24T05:34:38.025Z,9.73
2018-08-24T05:37:05.015Z,11.67
2018-08-24T05:39:32.008Z,4.23
2018-08-24T05:41:59.447Z,4.47
2018-08-24T05:44:26.672Z,4.10
2018-08-24T05:46:53.662Z,3.53
2018-08-24T05:49:21.657Z,3.70
2018-08-24T05:51:48.739Z,3.47
2018-08-24T05:54:15.898Z,3.00
2018-08-24T05:56:43.159Z,3.80
2018-08-24T05:59:10.141Z,4.50
2018-08-24T06:01:37.155Z,3.80
2018-08-24T06:04:04.223Z,2.63
2018-08-24T06:06:31.567Z,3.80
2018-08-24T06:09:04.413Z,4.17
2018-08-24T06:11:31.532Z,3.50
2018-08-24T06:13:58.849Z,4.57
2018-08-24T06:16:25.851Z,3.70
2018-08-24T06:18:52.841Z,3.67
2018-08-24T06:21:19.860Z,4.30
2018-08-24T06:23:46.859Z,4.50
2018-08-24T06:26:13.841Z,3.73
2018-08-24T06:28:41.027Z,3.90
2018-08-24T06:31:08.379Z,4.70
2018-08-24T06:33:35.493Z,5.30
2018-08-24T06:36:02.492Z,4.77
2018-08-24T06:38:29.484Z,4.53
2018-08-24T06:40:56.571Z,3.00
2018-08-24T06:43:23.631Z,4.37
2018-08-24T06:45:50.617Z,4.90
2018-08-24T06:48:18.299Z,5.00
2018-08-24T06:50:45.423Z,4.60
2018-08-24T06:53:12.511Z,6.00
2018-08-24T06:55:39.484Z,5.13
2018-08-24T06:58:06.481Z,6.50
2018-08-24T07:00:33.478Z,6.43
2018-08-24T07:03:01.756Z,5.50
2018-08-24T07:05:29.092Z,5.30
2018-08-24T07:07:56.072Z,3.93
2018-08-24T07:10:23.520Z,6.10
2018-08-24T07:12:51.135Z,6.13
2018-08-24T07:15:18.167Z,6.70
2018-08-24T07:17:50.939Z,6.27
2018-08-24T07:20:18.019Z,8.23
2018-08-24T07:22:45.000Z,7.40
2018-08-24T07:25:12.028Z,5.47
2018-08-24T07:27:39.089Z,5.97
2018-08-24T07:30:06.116Z,6.33
2018-08-24T07:32:33.178Z,7.93
2018-08-24T07:35:00.242Z,6.17
2018-08-24T07:37:27.240Z,6.47
2018-08-24T07:39:54.228Z,7.57
2018-08-24T07:42:21.198Z,6.37
2018-08-24T07:44:51.316Z,6.00
2018-08-24T07:47:18.921Z,7.60
2018-08-24T07:49:45.977Z,8.10
2018-08-24T07:52:12.968Z,7.90
2018-08-24T07:54:39.976Z,7.33
2018-08-24T07:57:07.145Z,8.10
2018-08-24T07:59:34.065Z,6.93
2018-08-24T08:02:01.470Z,8.27
2018-08-24T08:04:29.812Z,8.03
2018-08-24T08:06:56.805Z,6.80
2018-08-24T08:09:23.905Z,8.27
2018-08-24T08:11:50.903Z,7.50
2018-08-24T08:14:17.915Z,6.57
2018-08-24T08:16:44.919Z,8.93
2018-08-24T08:19:11.994Z,11.20
2018-08-24T08:21:39.092Z,13.40
2018-08-24T08:24:06.144Z,9.40
2018-08-24T08:26:33.172Z,10.67
2018-08-24T08:29:00.148Z,8.10
2018-08-24T08:31:27.245Z,10.10
2018-08-24T08:33:54.257Z,7.03
2018-08-24T08:36:21.248Z,10.87
2018-08-24T08:38:48.366Z,7.63
2018-08-24T08:41:15.363Z,8.40
2018-08-24T08:43:42.364Z,7.70
2018-08-24T08:46:09.445Z,5.73
2018-08-24T08:48:36.428Z,7.00
2018-08-24T08:51:03.432Z,8.13
2018-08-24T08:53:30.557Z,7.50
2018-08-24T08:55:57.456Z,6.90
2018-08-24T08:58:24.501Z,7.97
2018-08-24T09:00:51.516Z,8.00
2018-08-24T09:03:18.597Z,7.60
2018-08-24T09:05:45.943Z,7.20
2018-08-24T09:08:13.352Z,6.20
2018-08-24T09:10:40.393Z,6.23
2018-08-24T09:13:07.416Z,8.10
2018-08-24T09:15:34.432Z,7.10
2018-08-24T09:18:07.050Z,6.97
2018-08-24T09:20:40.100Z,7.47
2018-08-24T09:23:13.216Z,7.60
2018-08-24T09:25:45.898Z,7.37
2018-08-24T09:28:22.826Z,6.57
2018-08-24T09:30:53.448Z,7.17
2018-08-24T09:33:20.533Z,8.23
2018-08-24T09:35:47.851Z,10.73
2018-08-24T09:38:15.116Z,7.10
2018-08-24T09:40:47.786Z,8.30
2018-08-24T09:43:20.883Z,6.70
2018-08-24T09:45:47.915Z,7.03
2018-08-24T09:48:21.035Z,7.03
2018-08-24T09:50:54.550Z,8.47
2018-08-24T09:53:27.504Z,6.50
2018-08-24T09:55:54.682Z,7.23
2018-08-24T09:58:21.734Z,8.60
2018-08-24T10:00:54.735Z,9.70
2018-08-24T10:03:27.464Z,11.10
2018-08-24T10:06:00.351Z,9.40
2018-08-24T10:08:34.162Z,12.40
2018-08-24T10:11:03.835Z,13.80
2018-08-24T10:13:30.947Z,11.40
2018-08-24T10:15:57.951Z,11.20
2018-08-24T10:18:24.931Z,5.83
2018-08-24T10:20:51.939Z,9.30
2018-08-24T10:23:18.920Z,6.13
2018-08-24T10:25:45.912Z,6.20
2018-08-24T10:28:13.251Z,7.80
2018-08-24T10:30:40.288Z,6.23
2018-08-24T10:33:07.276Z,7.87
2018-08-24T10:35:34.285Z,5.00
2018-08-24T10:38:01.300Z,5.67
2018-08-24T10:40:28.319Z,8.33
2018-08-24T10:42:55.403Z,4.33
2018-08-24T10:45:22.467Z,5.43
2018-08-24T10:47:49.496Z,3.83
2018-08-24T10:50:16.511Z,8.03
2018-08-24T10:52:43.496Z,3.63
2018-08-24T10:55:10.503Z,3.63
2018-08-24T10:57:37.738Z,4.70
2018-08-24T11:00:05.155Z,7.00
2018-08-24T11:02:32.135Z,3.70
2018-08-24T11:04:59.316Z,4.17
2018-08-24T11:07:26.385Z,5.73
2018-08-24T11:09:53.317Z,3.83
2018-08-24T11:12:20.328Z,2.07
2018-08-24T11:14:47.364Z,7.03
2018-08-24T11:17:14.361Z,4.00
2018-08-24T11:19:41.467Z,3.13
2018-08-24T11:22:08.472Z,3.67
2018-08-24T11:24:35.560Z,3.90
2018-08-24T11:27:02.655Z,9.70
2018-08-24T11:29:29.672Z,3.67
2018-08-24T11:31:56.747Z,3.63
2018-08-24T11:34:23.849Z,3.87
2018-08-24T11:36:50.853Z,3.80
2018-08-24T11:39:17.902Z,5.60
2018-08-24T11:41:45.056Z,2.10
2018-08-24T11:44:12.036Z,2.90
2018-08-24T11:46:39.037Z,2.47
2018-08-24T11:49:06.315Z,2.63
2018-08-24T11:51:33.336Z,2.73
2018-08-24T11:54:01.082Z,2.80
2018-08-24T11:56:28.473Z,2.30
2018-08-24T11:58:55.515Z,2.40
2018-08-24T12:01:22.480Z,2.67
2018-08-24T12:03:49.491Z,2.83
2018-08-24T12:06:16.504Z,2.20
2018-08-24T12:08:50.649Z,2.13
2018-08-24T12:11:17.696Z,2.23
2018-08-24T12:13:44.717Z,2.43
2018-08-24T12:16:11.830Z,2.20
2018-08-24T12:18:39.142Z,4.00
2018-08-24T12:21:06.663Z,2.70
2018-08-24T12:23:33.671Z,2.60
2018-08-24T12:26:00.661Z,5.83
2018-08-24T12:28:27.852Z,1.67
2018-08-24T12:30:54.911Z,1.90
2018-08-24T12:33:22.072Z,3.10
2018-08-24T12:35:49.056Z,1.90
2018-08-24T12:38:16.033Z,6.33
2018-08-24T12:40:43.725Z,4.03
2018-08-24T12:43:10.807Z,2.70
2018-08-24T12:45:37.815Z,2.40
2018-08-24T12:48:05.430Z,2.70
2018-08-24T12:50:32.492Z,3.00
2018-08-24T12:52:59.472Z,1.90
2018-08-24T12:55:26.559Z,1.77
2018-08-24T12:57:53.521Z,1.87
2018-08-24T13:00:20.509Z,4.70
2018-08-24T13:02:47.535Z,4.00
2018-08-24T13:05:14.611Z,4.93
2018-08-24T13:07:41.671Z,3.70
2018-08-24T13:10:08.695Z,2.67
2018-08-24T13:12:35.672Z,1.80
2018-08-24T13:15:03.743Z,2.33
2018-08-24T13:17:30.812Z,1.43
2018-08-24T13:19:57.783Z,1.43
2018-08-24T13:22:24.867Z,1.93
2018-08-24T13:24:51.958Z,1.50
2018-08-24T13:27:19.007Z,1.30
2018-08-24T13:29:46.152Z,1.40
2018-08-24T13:32:13.762Z,1.40
2018-08-24T13:34:40.908Z,1.10
2018-08-24T13:37:08.183Z,1.30
2018-08-24T13:39:35.232Z,1.40
2018-08-24T13:42:03.072Z,0.97
2018-08-24T13:44:30.339Z,1.20
2018-08-24T13:46:57.655Z,1.40
2018-08-24T13:49:24.642Z,1.80
2018-08-24T13:51:51.654Z,1.30
2018-08-24T13:54:18.968Z,1.53
2018-08-24T13:56:46.063Z,1.27
2018-08-24T13:59:13.065Z,1.40
2018-08-24T14:01:40.198Z,1.10
2018-08-24T14:04:07.834Z,1.37
2018-08-24T14:06:35.096Z,1.90
2018-08-24T14:09:02.765Z,2.50
2018-08-24T14:11:29.772Z,9.07
2018-08-24T14:13:59.252Z,5.20
2018-08-24T14:16:26.348Z,2.13
2018-08-24T14:18:53.402Z,2.23
2018-08-24T14:21:20.470Z,3.57
2018-08-24T14:23:48.142Z,1.40
2018-08-24T14:26:15.150Z,4.13
2018-08-24T14:28:42.407Z,1.57
2018-08-24T14:31:09.473Z,1.23
2018-08-24T14:33:36.984Z,1.63
2018-08-24T14:36:04.003Z,1.20
2018-08-24T14:38:31.100Z,1.40
2018-08-24T14:40:58.095Z,2.00
2018-08-24T14:43:25.210Z,1.30
2018-08-24T14:45:52.196Z,0.80
2018-08-24T14:48:19.408Z,1.47
2018-08-24T14:50:46.439Z,1.10
2018-08-24T14:53:13.450Z,1.30
2018-08-24T14:55:40.520Z,1.30
2018-08-24T14:58:07.551Z,2.43
2018-08-24T15:00:34.576Z,4.80
2018-08-24T15:03:01.589Z,2.87
2018-08-24T15:05:28.580Z,1.50
2018-08-24T15:07:55.640Z,1.20
2018-08-24T15:10:22.644Z,1.40
2018-08-24T15:12:49.647Z,1.30
2018-08-24T15:15:16.747Z,1.57
2018-08-24T15:17:43.744Z,1.40
2018-08-24T15:20:10.826Z,1.57
2018-08-24T15:22:37.952Z,1.73
2018-08-24T15:25:04.967Z,1.90
2018-08-24T15:27:31.971Z,1.63
2018-08-24T15:29:59.040Z,2.30
2018-08-24T15:32:25.966Z,1.90
2018-08-24T15:34:53.391Z,1.60
2018-08-24T15:37:20.653Z,1.33
2018-08-24T15:39:47.667Z,1.37
2018-08-24T15:42:14.879Z,1.57
2018-08-24T15:44:42.088Z,1.90
2018-08-24T15:47:09.339Z,1.77
2018-08-24T15:49:36.415Z,2.00
2018-08-24T15:52:03.431Z,1.80
2018-08-24T15:54:30.679Z,1.30
2018-08-24T15:56:57.644Z,1.60
2018-08-24T15:59:24.843Z,1.30
2018-08-24T16:01:51.876Z,2.50
2018-08-24T16:04:19.285Z,0.93
2018-08-24T16:06:46.323Z,1.30
2018-08-24T16:09:13.647Z,2.57
2018-08-24T16:11:40.675Z,3.23
2018-08-24T16:14:09.007Z,3.80
2018-08-24T16:16:36.079Z,5.27
2018-08-24T16:19:03.083Z,1.70
2018-08-24T16:21:30.241Z,1.80
2018-08-24T16:23:57.304Z,2.33
2018-08-24T16:26:25.192Z,2.43
2018-08-24T16:28:52.540Z,1.33
2018-08-24T16:31:19.683Z,1.40
2018-08-24T16:33:46.698Z,1.60
2018-08-24T16:36:14.610Z,1.60
2018-08-24T16:38:42.659Z,1.53
2018-08-24T16:41:09.781Z,1.27
2018-08-24T16:43:36.759Z,1.67
2018-08-24T16:46:03.757Z,1.20
2018-08-24T16:48:30.739Z,1.17
2018-08-24T16:50:57.747Z,1.73
2018-08-24T16:53:24.765Z,4.40
2018-08-24T16:55:52.449Z,22.77
2018-08-24T16:58:19.494Z,3.57
2018-08-24T17:00:46.498Z,34.47
2018-08-24T17:03:13.521Z,17.00
2018-08-24T17:05:40.707Z,1.47
2018-08-24T17:08:07.713Z,11.33
2018-08-24T17:10:34.844Z,13.40
2018-08-24T17:13:01.995Z,22.93
2018-08-24T17:15:29.069Z,1.40
2018-08-24T17:17:56.312Z,17.70
2018-08-24T17:20:23.292Z,2.80
2018-08-24T17:22:50.296Z,1.60
2018-08-24T17:25:17.318Z,1.27
2018-08-24T17:27:44.307Z,2.83
2018-08-24T17:30:11.340Z,3.10
2018-08-24T17:32:38.452Z,2.23
2018-08-24T17:35:06.029Z,1.70
2018-08-24T17:37:33.039Z,2.50
2018-08-24T17:40:00.031Z,2.97
2018-08-24T17:42:27.036Z,6.87
2018-08-24T17:44:54.105Z,4.60
2018-08-24T17:47:21.110Z,3.00
2018-08-24T17:49:48.125Z,9.37
2018-08-24T17:52:15.605Z,2.00
2018-08-24T17:54:42.615Z,2.63
2018-08-24T17:57:09.704Z,1.63
2018-08-24T17:59:36.727Z,2.30
2018-08-24T18:02:04.741Z,18.27
2018-08-24T18:04:31.730Z,7.20
2018-08-24T18:06:58.710Z,1.70
2018-08-24T18:09:25.974Z,3.13
2018-08-24T18:11:52.991Z,2.27
2018-08-24T18:14:20.648Z,0.90
2018-08-24T18:16:47.720Z,2.10
2018-08-24T18:19:14.731Z,1.17
2018-08-24T18:21:42.220Z,1.80
2018-08-24T18:24:10.304Z,1.07
2018-08-24T18:26:37.576Z,1.20
2018-08-24T18:29:05.295Z,2.80
2018-08-24T18:31:32.765Z,5.57
2018-08-24T18:34:00.127Z,1.10
2018-08-24T18:36:27.353Z,2.50
2018-08-24T18:38:54.650Z,1.60
2018-08-24T18:41:21.817Z,1.10
2018-08-24T18:43:48.847Z,1.40
2018-08-24T18:46:16.114Z,1.57
2018-08-24T18:48:43.250Z,26.13
2018-08-24T18:51:10.696Z,1.50
2018-08-24T18:53:37.933Z,4.70
2018-08-24T18:56:05.488Z,1.77
2018-08-24T18:58:32.498Z,1.60
2018-08-24T19:00:59.511Z,2.03
2018-08-24T19:03:26.820Z,4.13
2018-08-24T19:05:54.033Z,2.70
2018-08-24T19:08:21.004Z,1.70
2018-08-24T19:10:54.091Z,2.70
2018-08-24T19:13:21.143Z,1.40
2018-08-24T19:15:48.178Z,1.83
2018-08-24T19:18:21.274Z,2.03
2018-08-24T19:20:54.105Z,2.40
2018-08-24T19:23:21.168Z,1.67
2018-08-24T19:25:48.430Z,3.23
2018-08-24T19:28:21.292Z,14.63
2018-08-24T19:30:48.604Z,1.80
2018-08-24T19:33:15.591Z,4.03
2018-08-24T19:35:42.691Z,2.00
2018-08-24T19:38:09.813Z,2.00
2018-08-24T19:40:42.389Z,2.03
2018-08-24T19:43:09.804Z,4.53
2018-08-24T19:45:36.872Z,2.40
2018-08-24T19:48:10.742Z,2.40
2018-08-24T19:50:37.778Z,4.30
2018-08-24T19:53:05.085Z,1.60
2018-08-24T19:55:32.274Z,1.60
2018-08-24T19:58:05.663Z,2.20
2018-08-24T20:00:33.077Z,2.20
2018-08-24T20:03:00.065Z,2.60
2018-08-24T20:05:27.389Z,2.87
2018-08-24T20:08:00.486Z,2.10
2018-08-24T20:10:28.583Z,5.83
2018-08-24T20:12:55.889Z,3.30
2018-08-24T20:15:28.603Z,2.93
2018-08-24T20:17:55.615Z,3.10
2018-08-24T20:20:22.620Z,9.47
2018-08-24T20:22:49.599Z,4.60
2018-08-24T20:25:16.613Z,6.23
2018-08-24T20:27:43.621Z,2.97
2018-08-24T20:30:10.612Z,2.43
2018-08-24T20:32:37.801Z,3.03
2018-08-24T20:35:04.791Z,3.13
2018-08-24T20:37:32.309Z,3.03
2018-08-24T20:39:59.685Z,4.13
2018-08-24T20:42:26.714Z,2.90
2018-08-24T20:44:53.703Z,4.73
2018-08-24T20:47:20.856Z,4.07
2018-08-24T20:49:47.820Z,2.80
2018-08-24T20:52:14.933Z,2.33
2018-08-24T20:54:41.921Z,3.50
2018-08-24T20:57:08.921Z,2.27
2018-08-24T20:59:35.912Z,1.97
2018-08-24T21:02:03.220Z,2.07
2018-08-24T21:04:30.308Z,2.50
2018-08-24T21:06:57.314Z,4.40
2018-08-24T21:09:24.310Z,2.70
2018-08-24T21:11:52.143Z,2.43
2018-08-24T21:14:19.191Z,4.07
2018-08-24T21:16:46.262Z,2.60
2018-08-24T21:19:13.204Z,2.33
2018-08-24T21:21:40.179Z,2.30
2018-08-24T21:24:09.234Z,2.33
2018-08-24T21:26:36.578Z,3.60
2018-08-24T21:29:03.851Z,2.73
2018-08-24T21:31:30.863Z,1.90
2018-08-24T21:33:58.550Z,3.20
2018-08-24T21:36:27.799Z,3.23
2018-08-24T21:38:56.785Z,2.93
2018-08-24T21:41:25.728Z,2.30
2018-08-24T21:43:54.922Z,2.30
2018-08-24T21:46:25.209Z,2.60
2018-08-24T21:48:54.319Z,2.40
2018-08-24T21:51:21.380Z,2.03
2018-08-24T21:53:48.560Z,1.67
2018-08-24T21:56:15.579Z,2.37
2018-08-24T21:58:42.576Z,2.10
2018-08-24T22:01:09.799Z,2.00
2018-08-24T22:03:36.876Z,2.17
2018-08-24T22:06:04.128Z,2.30
2018-08-24T22:08:31.480Z,2.43
2018-08-24T22:10:58.583Z,2.00
2018-08-24T22:13:25.651Z,2.20
2018-08-24T22:15:52.884Z,2.20
2018-08-24T22:18:19.943Z,2.30
2018-08-24T22:20:46.920Z,2.63
2018-08-24T22:23:14.363Z,2.40
2018-08-24T22:25:41.419Z,2.53
2018-08-24T22:28:08.431Z,2.27
2018-08-24T22:30:35.421Z,1.60
2018-08-24T22:33:02.755Z,2.33
2018-08-24T22:35:29.864Z,2.10
2018-08-24T22:37:56.832Z,2.50
2018-08-24T22:40:23.859Z,2.67
2018-08-24T22:42:51.147Z,2.00
2018-08-24T22:45:18.207Z,2.47
2018-08-24T22:47:45.281Z,1.87
2018-08-24T22:50:12.269Z,2.30
2018-08-24T22:52:39.943Z,2.73
2018-08-24T22:55:07.627Z,2.70
2018-08-24T22:57:34.694Z,2.80
2018-08-24T23:00:01.776Z,2.77
2018-08-24T23:02:28.775Z,2.87
2018-08-24T23:04:55.773Z,2.23
2018-08-24T23:07:23.012Z,2.80
2018-08-24T23:09:50.199Z,2.50
2018-08-24T23:12:17.228Z,3.13
2018-08-24T23:14:44.307Z,2.30
2018-08-24T23:17:11.412Z,3.10
2018-08-24T23:19:38.410Z,3.07
2018-08-24T23:22:05.408Z,2.50
2018-08-24T23:24:32.566Z,2.90
2018-08-24T23:26:59.708Z,2.90
2018-08-24T23:29:26.872Z,2.57
2018-08-24T23:31:53.876Z,2.90
2018-08-24T23:34:20.841Z,2.90
2018-08-24T23:36:47.849Z,3.10
2018-08-24T23:39:14.995Z,2.83
2018-08-24T23:41:42.052Z,3.03
2018-08-24T23:44:09.311Z,3.17
2018-08-24T23:46:36.673Z,2.47
2018-08-24T23:49:03.991Z,2.73
2018-08-24T23:51:30.986Z,2.57
2018-08-24T23:53:58.046Z,3.47
2018-08-24T23:56:25.383Z,2.70
2018-08-24T23:58:52.387Z,2.53
